sensor_id;sensor_type;location;lat;lon;timestamp;P1;durP1;ratioP1;P2;durP2;ratioP2
21110;SDS011;10713;51.912;4.494;2024-01-07T00:01:10;7.10;;;3.38;;
21110;SDS011;10713;51.912;4.494;2024-01-07T00:03:35;7.47;;;2.58;;
21110;SDS011;10713;51.912;4.494;2024-01-07T00:06:01;9.00;;;3.90;;
21110;SDS011;10713;51.912;4.494;2024-01-07T00:08:26;9.00;;;3.35;;
21110;SDS011;10713;51.912;4.494;2024-01-07T00:10:51;10.10;;;2.97;;
21110;SDS011;10713;51.912;4.494;2024-01-07T00:13:17;11.40;;;2.60;;
21110;SDS011;10713;51.912;4.494;2024-01-07T00:15:42;11.35;;;4.18;;
21110;SDS011;10713;51.912;4.494;2024-01-07T00:18:08;8.00;;;3.60;;
21110;SDS011;10713;51.912;4.494;2024-01-07T00:20:33;7.10;;;3.58;;
21110;SDS011;10713;51.912;4.494;2024-01-07T00:22:59;4.18;;;2.70;;
21110;SDS011;10713;51.912;4.494;2024-01-07T00:25:24;4.70;;;2.70;;
21110;SDS011;10713;51.912;4.494;2024-01-07T00:27:49;6.93;;;3.25;;
21110;SDS011;10713;51.912;4.494;2024-01-07T00:30:16;4.03;;;2.42;;
21110;SDS011;10713;51.912;4.494;2024-01-07T00:32:41;8.10;;;3.08;;
21110;SDS011;10713;51.912;4.494;2024-01-07T00:35:07;6.60;;;3.70;;
21110;SDS011;10713;51.912;4.494;2024-01-07T00:37:32;5.88;;;2.83;;
21110;SDS011;10713;51.912;4.494;2024-01-07T00:40:00;5.55;;;2.83;;
21110;SDS011;10713;51.912;4.494;2024-01-07T00:42:25;8.57;;;3.10;;
21110;SDS011;10713;51.912;4.494;2024-01-07T00:44:51;8.13;;;3.80;;
21110;SDS011;10713;51.912;4.494;2024-01-07T00:47:16;7.25;;;3.90;;
21110;SDS011;10713;51.912;4.494;2024-01-07T00:49:42;6.55;;;2.75;;
21110;SDS011;10713;51.912;4.494;2024-01-07T00:52:07;4.93;;;3.17;;
21110;SDS011;10713;51.912;4.494;2024-01-07T00:54:33;6.10;;;2.90;;
21110;SDS011;10713;51.912;4.494;2024-01-07T00:56:59;4.22;;;2.13;;
21110;SDS011;10713;51.912;4.494;2024-01-07T00:59:24;5.53;;;3.05;;
21110;SDS011;10713;51.912;4.494;2024-01-07T01:01:49;4.45;;;3.13;;
21110;SDS011;10713;51.912;4.494;2024-01-07T01:04:15;6.38;;;3.22;;
21110;SDS011;10713;51.912;4.494;2024-01-07T01:06:40;5.40;;;2.63;;
21110;SDS011;10713;51.912;4.494;2024-01-07T01:09:05;7.80;;;2.60;;
21110;SDS011;10713;51.912;4.494;2024-01-07T01:11:31;5.93;;;2.78;;
21110;SDS011;10713;51.912;4.494;2024-01-07T01:13:56;3.30;;;2.28;;
21110;SDS011;10713;51.912;4.494;2024-01-07T01:16:21;4.55;;;2.55;;
21110;SDS011;10713;51.912;4.494;2024-01-07T01:18:49;6.63;;;2.65;;
21110;SDS011;10713;51.912;4.494;2024-01-07T01:21:14;4.45;;;2.33;;
21110;SDS011;10713;51.912;4.494;2024-01-07T01:23:40;5.30;;;3.13;;
21110;SDS011;10713;51.912;4.494;2024-01-07T01:26:05;4.70;;;2.78;;
21110;SDS011;10713;51.912;4.494;2024-01-07T01:28:31;6.80;;;3.17;;
21110;SDS011;10713;51.912;4.494;2024-01-07T01:30:56;4.88;;;2.70;;
21110;SDS011;10713;51.912;4.494;2024-01-07T01:33:22;5.55;;;2.80;;
21110;SDS011;10713;51.912;4.494;2024-01-07T01:35:47;10.65;;;3.38;;
21110;SDS011;10713;51.912;4.494;2024-01-07T01:38:13;5.82;;;2.90;;
21110;SDS011;10713;51.912;4.494;2024-01-07T01:40:38;6.10;;;2.95;;
21110;SDS011;10713;51.912;4.494;2024-01-07T01:43:03;9.13;;;2.83;;
21110;SDS011;10713;51.912;4.494;2024-01-07T01:45:29;4.55;;;2.25;;
21110;SDS011;10713;51.912;4.494;2024-01-07T01:47:54;6.10;;;3.58;;
21110;SDS011;10713;51.912;4.494;2024-01-07T01:50:20;8.45;;;4.05;;
21110;SDS011;10713;51.912;4.494;2024-01-07T01:52:47;6.10;;;3.05;;
21110;SDS011;10713;51.912;4.494;2024-01-07T01:55:13;7.57;;;3.65;;
21110;SDS011;10713;51.912;4.494;2024-01-07T01:57:39;8.77;;;3.28;;
21110;SDS011;10713;51.912;4.494;2024-01-07T02:00:06;4.78;;;2.50;;
21110;SDS011;10713;51.912;4.494;2024-01-07T02:02:33;5.45;;;2.92;;
21110;SDS011;10713;51.912;4.494;2024-01-07T02:05:05;6.30;;;3.10;;
21110;SDS011;10713;51.912;4.494;2024-01-07T02:07:30;9.02;;;3.80;;
21110;SDS011;10713;51.912;4.494;2024-01-07T02:09:56;5.85;;;3.20;;
21110;SDS011;10713;51.912;4.494;2024-01-07T02:12:22;6.38;;;3.13;;
21110;SDS011;10713;51.912;4.494;2024-01-07T02:14:47;8.23;;;3.65;;
21110;SDS011;10713;51.912;4.494;2024-01-07T02:17:12;8.02;;;3.75;;
21110;SDS011;10713;51.912;4.494;2024-01-07T02:19:38;8.27;;;4.00;;
21110;SDS011;10713;51.912;4.494;2024-01-07T02:22:03;7.05;;;3.03;;
21110;SDS011;10713;51.912;4.494;2024-01-07T02:24:29;8.20;;;4.53;;
21110;SDS011;10713;51.912;4.494;2024-01-07T02:26:55;9.60;;;4.38;;
21110;SDS011;10713;51.912;4.494;2024-01-07T02:29:21;6.68;;;3.88;;
21110;SDS011;10713;51.912;4.494;2024-01-07T02:31:46;7.07;;;3.15;;
21110;SDS011;10713;51.912;4.494;2024-01-07T02:34:12;9.30;;;3.78;;
21110;SDS011;10713;51.912;4.494;2024-01-07T02:36:37;11.25;;;4.70;;
21110;SDS011;10713;51.912;4.494;2024-01-07T02:39:02;9.10;;;3.50;;
21110;SDS011;10713;51.912;4.494;2024-01-07T02:41:28;7.18;;;3.85;;
21110;SDS011;10713;51.912;4.494;2024-01-07T02:43:53;6.05;;;2.83;;
21110;SDS011;10713;51.912;4.494;2024-01-07T02:46:19;9.30;;;4.25;;
21110;SDS011;10713;51.912;4.494;2024-01-07T02:48:45;5.10;;;3.38;;
21110;SDS011;10713;51.912;4.494;2024-01-07T02:51:10;11.88;;;3.83;;
21110;SDS011;10713;51.912;4.494;2024-01-07T02:53:36;8.25;;;5.15;;
21110;SDS011;10713;51.912;4.494;2024-01-07T02:56:01;10.45;;;4.22;;
21110;SDS011;10713;51.912;4.494;2024-01-07T02:58:27;10.05;;;3.95;;
21110;SDS011;10713;51.912;4.494;2024-01-07T03:00:52;7.53;;;3.25;;
21110;SDS011;10713;51.912;4.494;2024-01-07T03:03:18;9.68;;;3.88;;
21110;SDS011;10713;51.912;4.494;2024-01-07T03:05:44;9.77;;;4.07;;
21110;SDS011;10713;51.912;4.494;2024-01-07T03:08:09;6.75;;;3.25;;
21110;SDS011;10713;51.912;4.494;2024-01-07T03:10:34;4.68;;;3.03;;
21110;SDS011;10713;51.912;4.494;2024-01-07T03:13:00;6.85;;;2.47;;
21110;SDS011;10713;51.912;4.494;2024-01-07T03:15:26;5.82;;;2.70;;
21110;SDS011;10713;51.912;4.494;2024-01-07T03:17:51;6.03;;;3.03;;
21110;SDS011;10713;51.912;4.494;2024-01-07T03:20:17;6.15;;;3.05;;
21110;SDS011;10713;51.912;4.494;2024-01-07T03:22:42;5.50;;;2.83;;
21110;SDS011;10713;51.912;4.494;2024-01-07T03:25:08;9.40;;;3.42;;
21110;SDS011;10713;51.912;4.494;2024-01-07T03:27:33;6.47;;;3.25;;
21110;SDS011;10713;51.912;4.494;2024-01-07T03:29:58;8.23;;;4.30;;
21110;SDS011;10713;51.912;4.494;2024-01-07T03:32:24;5.85;;;2.42;;
21110;SDS011;10713;51.912;4.494;2024-01-07T03:34:49;5.95;;;3.03;;
21110;SDS011;10713;51.912;4.494;2024-01-07T03:37:14;4.78;;;2.75;;
21110;SDS011;10713;51.912;4.494;2024-01-07T03:39:40;8.25;;;4.10;;
21110;SDS011;10713;51.912;4.494;2024-01-07T03:42:05;6.10;;;2.65;;
21110;SDS011;10713;51.912;4.494;2024-01-07T03:44:36;9.43;;;3.42;;
21110;SDS011;10713;51.912;4.494;2024-01-07T03:47:01;7.97;;;3.88;;
21110;SDS011;10713;51.912;4.494;2024-01-07T03:49:27;11.20;;;4.65;;
21110;SDS011;10713;51.912;4.494;2024-01-07T03:51:52;8.90;;;3.17;;
21110;SDS011;10713;51.912;4.494;2024-01-07T03:54:17;9.32;;;3.92;;
21110;SDS011;10713;51.912;4.494;2024-01-07T03:56:43;5.30;;;2.88;;
21110;SDS011;10713;51.912;4.494;2024-01-07T03:59:08;9.10;;;3.28;;
21110;SDS011;10713;51.912;4.494;2024-01-07T04:01:33;10.55;;;4.10;;
21110;SDS011;10713;51.912;4.494;2024-01-07T04:03:59;8.13;;;3.45;;
21110;SDS011;10713;51.912;4.494;2024-01-07T04:06:24;6.97;;;3.95;;
21110;SDS011;10713;51.912;4.494;2024-01-07T04:08:50;9.75;;;4.50;;
21110;SDS011;10713;51.912;4.494;2024-01-07T04:11:15;12.15;;;5.68;;
21110;SDS011;10713;51.912;4.494;2024-01-07T04:13:40;8.18;;;4.38;;
21110;SDS011;10713;51.912;4.494;2024-01-07T04:16:06;8.13;;;3.58;;
21110;SDS011;10713;51.912;4.494;2024-01-07T04:18:40;8.70;;;4.00;;
21110;SDS011;10713;51.912;4.494;2024-01-07T04:21:08;5.85;;;2.95;;
21110;SDS011;10713;51.912;4.494;2024-01-07T04:23:34;9.00;;;3.28;;
21110;SDS011;10713;51.912;4.494;2024-01-07T04:25:59;9.18;;;4.32;;
21110;SDS011;10713;51.912;4.494;2024-01-07T04:28:25;7.22;;;3.17;;
21110;SDS011;10713;51.912;4.494;2024-01-07T04:30:50;10.43;;;4.72;;
21110;SDS011;10713;51.912;4.494;2024-01-07T04:33:15;11.80;;;5.25;;
21110;SDS011;10713;51.912;4.494;2024-01-07T04:35:41;10.13;;;5.10;;
21110;SDS011;10713;51.912;4.494;2024-01-07T04:38:06;10.35;;;4.55;;
21110;SDS011;10713;51.912;4.494;2024-01-07T04:40:33;7.78;;;3.47;;
21110;SDS011;10713;51.912;4.494;2024-01-07T04:42:58;11.18;;;4.10;;
21110;SDS011;10713;51.912;4.494;2024-01-07T04:45:24;13.13;;;4.97;;
21110;SDS011;10713;51.912;4.494;2024-01-07T04:47:50;6.90;;;3.80;;
21110;SDS011;10713;51.912;4.494;2024-01-07T04:50:15;9.40;;;4.72;;
21110;SDS011;10713;51.912;4.494;2024-01-07T04:52:44;8.35;;;4.07;;
21110;SDS011;10713;51.912;4.494;2024-01-07T04:55:10;10.25;;;4.47;;
21110;SDS011;10713;51.912;4.494;2024-01-07T04:57:35;5.65;;;3.58;;
21110;SDS011;10713;51.912;4.494;2024-01-07T05:00:01;6.40;;;3.50;;
21110;SDS011;10713;51.912;4.494;2024-01-07T05:02:27;9.90;;;4.15;;
21110;SDS011;10713;51.912;4.494;2024-01-07T05:04:52;12.25;;;4.97;;
21110;SDS011;10713;51.912;4.494;2024-01-07T05:07:18;12.50;;;4.45;;
21110;SDS011;10713;51.912;4.494;2024-01-07T05:09:43;10.05;;;4.30;;
21110;SDS011;10713;51.912;4.494;2024-01-07T05:12:09;15.75;;;5.50;;
21110;SDS011;10713;51.912;4.494;2024-01-07T05:14:34;10.35;;;4.22;;
21110;SDS011;10713;51.912;4.494;2024-01-07T05:16:59;7.88;;;3.80;;
21110;SDS011;10713;51.912;4.494;2024-01-07T05:19:25;4.65;;;2.80;;
21110;SDS011;10713;51.912;4.494;2024-01-07T05:21:50;9.27;;;4.00;;
21110;SDS011;10713;51.912;4.494;2024-01-07T05:24:15;5.35;;;2.88;;
21110;SDS011;10713;51.912;4.494;2024-01-07T05:26:42;9.55;;;4.45;;
21110;SDS011;10713;51.912;4.494;2024-01-07T05:29:08;11.65;;;3.83;;
21110;SDS011;10713;51.912;4.494;2024-01-07T05:31:34;11.13;;;4.30;;
21110;SDS011;10713;51.912;4.494;2024-01-07T05:33:59;7.90;;;3.45;;
21110;SDS011;10713;51.912;4.494;2024-01-07T05:36:24;7.95;;;3.55;;
21110;SDS011;10713;51.912;4.494;2024-01-07T05:38:50;7.28;;;3.45;;
21110;SDS011;10713;51.912;4.494;2024-01-07T05:41:15;11.70;;;4.20;;
21110;SDS011;10713;51.912;4.494;2024-01-07T05:43:41;7.05;;;3.35;;
21110;SDS011;10713;51.912;4.494;2024-01-07T05:46:06;8.93;;;4.10;;
21110;SDS011;10713;51.912;4.494;2024-01-07T05:48:44;11.00;;;4.50;;
21110;SDS011;10713;51.912;4.494;2024-01-07T05:51:11;8.02;;;4.22;;
21110;SDS011;10713;51.912;4.494;2024-01-07T05:53:37;7.82;;;3.75;;
21110;SDS011;10713;51.912;4.494;2024-01-07T05:56:03;7.38;;;3.72;;
21110;SDS011;10713;51.912;4.494;2024-01-07T05:58:29;10.07;;;5.25;;
21110;SDS011;10713;51.912;4.494;2024-01-07T06:00:55;12.38;;;4.57;;
21110;SDS011;10713;51.912;4.494;2024-01-07T06:03:20;9.75;;;4.15;;
21110;SDS011;10713;51.912;4.494;2024-01-07T06:05:46;9.57;;;3.58;;
21110;SDS011;10713;51.912;4.494;2024-01-07T06:08:11;11.43;;;4.15;;
21110;SDS011;10713;51.912;4.494;2024-01-07T06:10:38;14.48;;;6.15;;
21110;SDS011;10713;51.912;4.494;2024-01-07T06:13:03;12.02;;;5.35;;
21110;SDS011;10713;51.912;4.494;2024-01-07T06:15:29;7.43;;;3.22;;
21110;SDS011;10713;51.912;4.494;2024-01-07T06:17:54;15.40;;;5.80;;
21110;SDS011;10713;51.912;4.494;2024-01-07T06:20:20;8.68;;;3.88;;
21110;SDS011;10713;51.912;4.494;2024-01-07T06:22:46;9.52;;;4.70;;
21110;SDS011;10713;51.912;4.494;2024-01-07T06:25:11;12.65;;;5.30;;
21110;SDS011;10713;51.912;4.494;2024-01-07T06:27:38;12.32;;;5.22;;
21110;SDS011;10713;51.912;4.494;2024-01-07T06:30:04;21.13;;;5.43;;
21110;SDS011;10713;51.912;4.494;2024-01-07T06:32:31;11.32;;;5.25;;
21110;SDS011;10713;51.912;4.494;2024-01-07T06:34:57;11.20;;;4.97;;
21110;SDS011;10713;51.912;4.494;2024-01-07T06:37:23;8.05;;;3.72;;
21110;SDS011;10713;51.912;4.494;2024-01-07T06:39:48;17.90;;;5.63;;
21110;SDS011;10713;51.912;4.494;2024-01-07T06:42:14;8.35;;;4.20;;
21110;SDS011;10713;51.912;4.494;2024-01-07T06:44:39;14.15;;;5.38;;
21110;SDS011;10713;51.912;4.494;2024-01-07T06:47:04;10.55;;;4.85;;
21110;SDS011;10713;51.912;4.494;2024-01-07T06:49:30;12.23;;;6.03;;
21110;SDS011;10713;51.912;4.494;2024-01-07T06:51:55;14.43;;;4.72;;
21110;SDS011;10713;51.912;4.494;2024-01-07T06:54:20;8.65;;;4.28;;
21110;SDS011;10713;51.912;4.494;2024-01-07T06:56:46;11.57;;;4.88;;
21110;SDS011;10713;51.912;4.494;2024-01-07T06:59:11;12.77;;;5.32;;
21110;SDS011;10713;51.912;4.494;2024-01-07T07:01:37;10.77;;;5.43;;
21110;SDS011;10713;51.912;4.494;2024-01-07T07:04:03;14.73;;;5.60;;
21110;SDS011;10713;51.912;4.494;2024-01-07T07:06:29;12.13;;;4.82;;
21110;SDS011;10713;51.912;4.494;2024-01-07T07:08:54;13.30;;;5.93;;
21110;SDS011;10713;51.912;4.494;2024-01-07T07:11:19;12.05;;;4.72;;
21110;SDS011;10713;51.912;4.494;2024-01-07T07:13:45;8.73;;;4.32;;
21110;SDS011;10713;51.912;4.494;2024-01-07T07:16:10;10.07;;;4.55;;
21110;SDS011;10713;51.912;4.494;2024-01-07T07:18:37;13.55;;;5.68;;
21110;SDS011;10713;51.912;4.494;2024-01-07T07:21:02;12.13;;;4.53;;
21110;SDS011;10713;51.912;4.494;2024-01-07T07:23:27;11.30;;;5.10;;
21110;SDS011;10713;51.912;4.494;2024-01-07T07:25:53;14.70;;;5.20;;
21110;SDS011;10713;51.912;4.494;2024-01-07T07:28:18;9.38;;;4.65;;
21110;SDS011;10713;51.912;4.494;2024-01-07T07:30:43;5.93;;;3.53;;
21110;SDS011;10713;51.912;4.494;2024-01-07T07:33:09;7.93;;;4.22;;
21110;SDS011;10713;51.912;4.494;2024-01-07T07:35:35;16.17;;;4.75;;
21110;SDS011;10713;51.912;4.494;2024-01-07T07:38:00;18.40;;;4.53;;
21110;SDS011;10713;51.912;4.494;2024-01-07T07:40:25;14.68;;;4.55;;
21110;SDS011;10713;51.912;4.494;2024-01-07T07:42:51;8.68;;;4.72;;
21110;SDS011;10713;51.912;4.494;2024-01-07T07:45:16;10.77;;;4.95;;
21110;SDS011;10713;51.912;4.494;2024-01-07T07:47:42;12.98;;;5.25;;
21110;SDS011;10713;51.912;4.494;2024-01-07T07:50:10;7.70;;;3.95;;
21110;SDS011;10713;51.912;4.494;2024-01-07T07:52:35;8.88;;;4.68;;
21110;SDS011;10713;51.912;4.494;2024-01-07T07:55:01;8.13;;;3.38;;
21110;SDS011;10713;51.912;4.494;2024-01-07T07:57:26;10.90;;;3.38;;
21110;SDS011;10713;51.912;4.494;2024-01-07T07:59:52;9.52;;;3.72;;
21110;SDS011;10713;51.912;4.494;2024-01-07T08:02:18;10.07;;;4.88;;
21110;SDS011;10713;51.912;4.494;2024-01-07T08:04:43;7.68;;;3.30;;
21110;SDS011;10713;51.912;4.494;2024-01-07T08:07:09;10.88;;;5.07;;
21110;SDS011;10713;51.912;4.494;2024-01-07T08:09:34;6.63;;;4.03;;
21110;SDS011;10713;51.912;4.494;2024-01-07T08:12:04;20.65;;;5.50;;
21110;SDS011;10713;51.912;4.494;2024-01-07T08:14:30;8.70;;;4.13;;
21110;SDS011;10713;51.912;4.494;2024-01-07T08:16:56;8.32;;;4.22;;
21110;SDS011;10713;51.912;4.494;2024-01-07T08:19:21;6.82;;;3.95;;
21110;SDS011;10713;51.912;4.494;2024-01-07T08:21:47;11.75;;;4.57;;
21110;SDS011;10713;51.912;4.494;2024-01-07T08:24:12;14.73;;;4.88;;
21110;SDS011;10713;51.912;4.494;2024-01-07T08:26:37;6.35;;;3.50;;
21110;SDS011;10713;51.912;4.494;2024-01-07T08:29:03;13.85;;;5.05;;
21110;SDS011;10713;51.912;4.494;2024-01-07T08:31:29;10.02;;;4.65;;
21110;SDS011;10713;51.912;4.494;2024-01-07T08:33:55;6.88;;;3.80;;
21110;SDS011;10713;51.912;4.494;2024-01-07T08:36:21;9.85;;;4.85;;
21110;SDS011;10713;51.912;4.494;2024-01-07T08:38:46;7.45;;;3.45;;
21110;SDS011;10713;51.912;4.494;2024-01-07T08:41:12;7.60;;;3.70;;
21110;SDS011;10713;51.912;4.494;2024-01-07T08:43:40;9.60;;;3.80;;
21110;SDS011;10713;51.912;4.494;2024-01-07T08:46:06;9.23;;;4.07;;
21110;SDS011;10713;51.912;4.494;2024-01-07T08:48:31;6.15;;;3.17;;
21110;SDS011;10713;51.912;4.494;2024-01-07T08:50:57;5.97;;;3.35;;
21110;SDS011;10713;51.912;4.494;2024-01-07T08:53:22;8.35;;;3.50;;
21110;SDS011;10713;51.912;4.494;2024-01-07T08:55:48;5.95;;;2.90;;
21110;SDS011;10713;51.912;4.494;2024-01-07T08:58:13;6.15;;;2.97;;
21110;SDS011;10713;51.912;4.494;2024-01-07T09:00:39;10.85;;;4.28;;
21110;SDS011;10713;51.912;4.494;2024-01-07T09:03:05;6.55;;;3.47;;
21110;SDS011;10713;51.912;4.494;2024-01-07T09:05:31;7.63;;;3.60;;
21110;SDS011;10713;51.912;4.494;2024-01-07T09:07:57;4.90;;;2.75;;
21110;SDS011;10713;51.912;4.494;2024-01-07T09:10:22;6.03;;;3.08;;
21110;SDS011;10713;51.912;4.494;2024-01-07T09:12:49;7.18;;;3.40;;
21110;SDS011;10713;51.912;4.494;2024-01-07T09:15:15;8.75;;;4.03;;
21110;SDS011;10713;51.912;4.494;2024-01-07T09:17:43;6.43;;;4.00;;
21110;SDS011;10713;51.912;4.494;2024-01-07T09:20:10;7.85;;;4.53;;
21110;SDS011;10713;51.912;4.494;2024-01-07T09:22:35;11.27;;;3.63;;
21110;SDS011;10713;51.912;4.494;2024-01-07T09:25:04;7.13;;;4.28;;
21110;SDS011;10713;51.912;4.494;2024-01-07T09:27:31;9.10;;;3.90;;
21110;SDS011;10713;51.912;4.494;2024-01-07T09:29:57;9.70;;;3.60;;
21110;SDS011;10713;51.912;4.494;2024-01-07T09:32:23;7.57;;;3.95;;
21110;SDS011;10713;51.912;4.494;2024-01-07T09:34:48;8.88;;;3.83;;
21110;SDS011;10713;51.912;4.494;2024-01-07T09:37:13;12.85;;;5.63;;
21110;SDS011;10713;51.912;4.494;2024-01-07T09:39:39;8.10;;;4.05;;
21110;SDS011;10713;51.912;4.494;2024-01-07T09:42:07;8.07;;;3.88;;
21110;SDS011;10713;51.912;4.494;2024-01-07T09:44:40;8.50;;;5.07;;
21110;SDS011;10713;51.912;4.494;2024-01-07T09:47:06;9.77;;;5.07;;
21110;SDS011;10713;51.912;4.494;2024-01-07T09:49:37;7.88;;;4.18;;
21110;SDS011;10713;51.912;4.494;2024-01-07T09:52:03;8.88;;;4.25;;
21110;SDS011;10713;51.912;4.494;2024-01-07T09:54:29;9.50;;;4.53;;
21110;SDS011;10713;51.912;4.494;2024-01-07T09:56:58;9.05;;;4.30;;
21110;SDS011;10713;51.912;4.494;2024-01-07T09:59:29;11.52;;;4.63;;
21110;SDS011;10713;51.912;4.494;2024-01-07T10:01:56;13.80;;;4.15;;
21110;SDS011;10713;51.912;4.494;2024-01-07T10:04:22;9.23;;;4.53;;
21110;SDS011;10713;51.912;4.494;2024-01-07T10:06:49;6.28;;;2.80;;
21110;SDS011;10713;51.912;4.494;2024-01-07T10:09:17;8.25;;;3.83;;
21110;SDS011;10713;51.912;4.494;2024-01-07T10:11:43;8.18;;;2.63;;
21110;SDS011;10713;51.912;4.494;2024-01-07T10:14:09;8.02;;;3.72;;
21110;SDS011;10713;51.912;4.494;2024-01-07T10:16:35;4.53;;;3.03;;
21110;SDS011;10713;51.912;4.494;2024-01-07T10:19:00;10.07;;;3.45;;
21110;SDS011;10713;51.912;4.494;2024-01-07T10:21:26;7.13;;;3.40;;
21110;SDS011;10713;51.912;4.494;2024-01-07T10:23:58;7.28;;;3.35;;
21110;SDS011;10713;51.912;4.494;2024-01-07T10:26:34;9.38;;;4.35;;
21110;SDS011;10713;51.912;4.494;2024-01-07T10:28:59;12.43;;;3.90;;
21110;SDS011;10713;51.912;4.494;2024-01-07T10:31:25;7.55;;;3.90;;
21110;SDS011;10713;51.912;4.494;2024-01-07T10:33:50;7.25;;;3.63;;
21110;SDS011;10713;51.912;4.494;2024-01-07T10:36:17;10.23;;;4.05;;
21110;SDS011;10713;51.912;4.494;2024-01-07T10:38:44;7.95;;;4.20;;
21110;SDS011;10713;51.912;4.494;2024-01-07T10:41:10;11.38;;;4.32;;
21110;SDS011;10713;51.912;4.494;2024-01-07T10:43:36;10.05;;;3.53;;
21110;SDS011;10713;51.912;4.494;2024-01-07T10:46:04;7.28;;;3.53;;
21110;SDS011;10713;51.912;4.494;2024-01-07T10:48:32;7.78;;;3.70;;
21110;SDS011;10713;51.912;4.494;2024-01-07T10:51:02;7.90;;;3.95;;
21110;SDS011;10713;51.912;4.494;2024-01-07T10:53:28;8.10;;;3.45;;
21110;SDS011;10713;51.912;4.494;2024-01-07T10:56:06;11.82;;;4.55;;
21110;SDS011;10713;51.912;4.494;2024-01-07T10:58:36;9.30;;;3.30;;
21110;SDS011;10713;51.912;4.494;2024-01-07T11:01:02;5.80;;;3.20;;
21110;SDS011;10713;51.912;4.494;2024-01-07T11:06:08;9.23;;;3.55;;
21110;SDS011;10713;51.912;4.494;2024-01-07T11:08:41;8.98;;;3.90;;
21110;SDS011;10713;51.912;4.494;2024-01-07T11:11:16;5.55;;;3.53;;
21110;SDS011;10713;51.912;4.494;2024-01-07T11:13:46;7.53;;;3.33;;
21110;SDS011;10713;51.912;4.494;2024-01-07T11:16:11;5.50;;;2.58;;
21110;SDS011;10713;51.912;4.494;2024-01-07T11:18:41;6.95;;;3.60;;
21110;SDS011;10713;51.912;4.494;2024-01-07T11:21:11;6.55;;;2.70;;
21110;SDS011;10713;51.912;4.494;2024-01-07T11:23:46;6.43;;;3.28;;
21110;SDS011;10713;51.912;4.494;2024-01-07T11:26:11;5.85;;;3.10;;
21110;SDS011;10713;51.912;4.494;2024-01-07T11:31:12;5.07;;;2.90;;
21110;SDS011;10713;51.912;4.494;2024-01-07T11:33:38;4.35;;;2.60;;
21110;SDS011;10713;51.912;4.494;2024-01-07T11:36:04;4.90;;;3.00;;
21110;SDS011;10713;51.912;4.494;2024-01-07T11:38:30;9.18;;;2.72;;
21110;SDS011;10713;51.912;4.494;2024-01-07T11:40:56;8.93;;;2.58;;
21110;SDS011;10713;51.912;4.494;2024-01-07T11:43:22;9.63;;;3.05;;
21110;SDS011;10713;51.912;4.494;2024-01-07T11:45:50;4.70;;;2.35;;
21110;SDS011;10713;51.912;4.494;2024-01-07T11:48:17;4.05;;;2.47;;
21110;SDS011;10713;51.912;4.494;2024-01-07T11:50:43;4.20;;;2.28;;
21110;SDS011;10713;51.912;4.494;2024-01-07T11:53:08;6.35;;;3.13;;
21110;SDS011;10713;51.912;4.494;2024-01-07T11:55:36;3.85;;;2.05;;
21110;SDS011;10713;51.912;4.494;2024-01-07T11:58:02;4.95;;;2.28;;
21110;SDS011;10713;51.912;4.494;2024-01-07T12:00:30;9.05;;;3.28;;
21110;SDS011;10713;51.912;4.494;2024-01-07T12:02:56;4.03;;;2.42;;
21110;SDS011;10713;51.912;4.494;2024-01-07T12:05:22;4.43;;;2.15;;
21110;SDS011;10713;51.912;4.494;2024-01-07T12:07:47;5.13;;;3.13;;
21110;SDS011;10713;51.912;4.494;2024-01-07T12:10:12;5.32;;;2.65;;
21110;SDS011;10713;51.912;4.494;2024-01-07T12:12:39;2.90;;;1.92;;
21110;SDS011;10713;51.912;4.494;2024-01-07T12:15:06;5.80;;;2.65;;
21110;SDS011;10713;51.912;4.494;2024-01-07T12:17:32;4.30;;;2.55;;
21110;SDS011;10713;51.912;4.494;2024-01-07T12:19:57;3.17;;;1.55;;
21110;SDS011;10713;51.912;4.494;2024-01-07T12:22:23;6.15;;;2.42;;
21110;SDS011;10713;51.912;4.494;2024-01-07T12:24:59;3.08;;;1.75;;
21110;SDS011;10713;51.912;4.494;2024-01-07T12:27:25;5.72;;;2.33;;
21110;SDS011;10713;51.912;4.494;2024-01-07T12:29:57;5.30;;;2.17;;
21110;SDS011;10713;51.912;4.494;2024-01-07T12:32:22;3.22;;;1.83;;
21110;SDS011;10713;51.912;4.494;2024-01-07T12:34:51;4.93;;;1.88;;
21110;SDS011;10713;51.912;4.494;2024-01-07T12:37:16;4.30;;;1.42;;
21110;SDS011;10713;51.912;4.494;2024-01-07T12:39:42;4.90;;;1.75;;
21110;SDS011;10713;51.912;4.494;2024-01-07T12:42:07;15.02;;;1.80;;
21110;SDS011;10713;51.912;4.494;2024-01-07T12:44:34;3.47;;;1.58;;
21110;SDS011;10713;51.912;4.494;2024-01-07T12:47:01;2.47;;;1.55;;
21110;SDS011;10713;51.912;4.494;2024-01-07T12:49:27;3.13;;;1.88;;
21110;SDS011;10713;51.912;4.494;2024-01-07T12:51:52;3.83;;;1.80;;
21110;SDS011;10713;51.912;4.494;2024-01-07T12:54:17;3.92;;;2.03;;
21110;SDS011;10713;51.912;4.494;2024-01-07T12:56:44;5.18;;;1.60;;
21110;SDS011;10713;51.912;4.494;2024-01-07T12:59:09;4.07;;;1.95;;
21110;SDS011;10713;51.912;4.494;2024-01-07T13:01:35;3.53;;;1.63;;
21110;SDS011;10713;51.912;4.494;2024-01-07T13:04:01;4.65;;;1.95;;
21110;SDS011;10713;51.912;4.494;2024-01-07T13:06:27;3.53;;;2.05;;
21110;SDS011;10713;51.912;4.494;2024-01-07T13:08:53;1.95;;;1.33;;
21110;SDS011;10713;51.912;4.494;2024-01-07T13:11:19;5.97;;;1.88;;
21110;SDS011;10713;51.912;4.494;2024-01-07T13:13:45;2.97;;;1.50;;
21110;SDS011;10713;51.912;4.494;2024-01-07T13:16:11;8.85;;;1.42;;
21110;SDS011;10713;51.912;4.494;2024-01-07T13:18:37;3.03;;;1.45;;
21110;SDS011;10713;51.912;4.494;2024-01-07T13:21:02;3.03;;;1.50;;
21110;SDS011;10713;51.912;4.494;2024-01-07T13:23:28;4.50;;;1.98;;
21110;SDS011;10713;51.912;4.494;2024-01-07T13:25:54;2.60;;;1.48;;
21110;SDS011;10713;51.912;4.494;2024-01-07T13:28:20;2.28;;;1.30;;
21110;SDS011;10713;51.912;4.494;2024-01-07T13:30:45;1.98;;;1.20;;
21110;SDS011;10713;51.912;4.494;2024-01-07T13:33:11;1.45;;;1.05;;
21110;SDS011;10713;51.912;4.494;2024-01-07T13:35:36;0.82;;;0.82;;
21110;SDS011;10713;51.912;4.494;2024-01-07T13:38:01;1.80;;;1.15;;
21110;SDS011;10713;51.912;4.494;2024-01-07T13:40:27;6.35;;;1.17;;
21110;SDS011;10713;51.912;4.494;2024-01-07T13:42:52;1.50;;;1.27;;
21110;SDS011;10713;51.912;4.494;2024-01-07T13:45:19;4.55;;;1.60;;
21110;SDS011;10713;51.912;4.494;2024-01-07T13:47:50;1.90;;;1.02;;
21110;SDS011;10713;51.912;4.494;2024-01-07T13:50:16;1.00;;;0.90;;
21110;SDS011;10713;51.912;4.494;2024-01-07T13:52:41;2.05;;;1.13;;
21110;SDS011;10713;51.912;4.494;2024-01-07T13:55:06;1.65;;;1.30;;
21110;SDS011;10713;51.912;4.494;2024-01-07T13:57:34;3.10;;;1.35;;
21110;SDS011;10713;51.912;4.494;2024-01-07T14:00:00;4.88;;;1.52;;
21110;SDS011;10713;51.912;4.494;2024-01-07T14:02:32;3.03;;;1.20;;
21110;SDS011;10713;51.912;4.494;2024-01-07T14:04:58;2.70;;;1.58;;
21110;SDS011;10713;51.912;4.494;2024-01-07T14:07:24;1.67;;;0.90;;
21110;SDS011;10713;51.912;4.494;2024-01-07T14:09:51;1.63;;;1.20;;
21110;SDS011;10713;51.912;4.494;2024-01-07T14:12:17;1.50;;;1.10;;
21110;SDS011;10713;51.912;4.494;2024-01-07T14:14:42;4.78;;;0.90;;
21110;SDS011;10713;51.912;4.494;2024-01-07T14:17:08;2.22;;;1.35;;
21110;SDS011;10713;51.912;4.494;2024-01-07T14:19:33;12.13;;;1.33;;
21110;SDS011;10713;51.912;4.494;2024-01-07T14:21:59;1.73;;;1.02;;
21110;SDS011;10713;51.912;4.494;2024-01-07T14:24:24;0.88;;;0.55;;
21110;SDS011;10713;51.912;4.494;2024-01-07T14:26:49;2.90;;;1.23;;
21110;SDS011;10713;51.912;4.494;2024-01-07T14:29:15;1.10;;;0.98;;
21110;SDS011;10713;51.912;4.494;2024-01-07T14:31:40;4.78;;;0.95;;
21110;SDS011;10713;51.912;4.494;2024-01-07T14:34:06;2.13;;;1.35;;
21110;SDS011;10713;51.912;4.494;2024-01-07T14:36:32;3.45;;;1.67;;
21110;SDS011;10713;51.912;4.494;2024-01-07T14:38:57;4.20;;;1.83;;
21110;SDS011;10713;51.912;4.494;2024-01-07T14:41:22;3.25;;;1.42;;
21110;SDS011;10713;51.912;4.494;2024-01-07T14:43:48;2.25;;;1.20;;